sensor_id;sensor_type;location;lat;lon;timestamp;P1;durP1;ratioP1;P2;durP2;ratioP2
23175;SDS011;19910;42.652;23.332;2023-05-13T00:02:13;1.05;;;0.98;;
23175;SDS011;19910;42.652;23.332;2023-05-13T00:04:39;0.80;;;0.80;;
23175;SDS011;19910;42.652;23.332;2023-05-13T00:07:06;1.20;;;1.10;;
23175;SDS011;19910;42.652;23.332;2023-05-13T00:09:33;0.90;;;0.90;;
23175;SDS011;19910;42.652;23.332;2023-05-13T00:12:00;3.00;;;1.05;;
23175;SDS011;19910;42.652;23.332;2023-05-13T00:14:28;1.02;;;0.90;;
23175;SDS011;19910;42.652;23.332;2023-05-13T00:16:56;1.25;;;1.02;;
23175;SDS011;19910;42.652;23.332;2023-05-13T00:19:23;1.42;;;0.93;;
23175;SDS011;19910;42.652;23.332;2023-05-13T00:21:50;2.78;;;1.17;;
23175;SDS011;19910;42.652;23.332;2023-05-13T00:24:17;3.83;;;1.50;;
23175;SDS011;19910;42.652;23.332;2023-05-13T00:26:44;1.42;;;1.25;;
23175;SDS011;19910;42.652;23.332;2023-05-13T00:29:11;3.80;;;1.23;;
23175;SDS011;19910;42.652;23.332;2023-05-13T00:31:39;2.88;;;1.77;;
23175;SDS011;19910;42.652;23.332;2023-05-13T00:34:05;3.97;;;2.10;;
23175;SDS011;19910;42.652;23.332;2023-05-13T00:36:32;4.47;;;2.58;;
23175;SDS011;19910;42.652;23.332;2023-05-13T00:38:59;3.42;;;2.10;;
23175;SDS011;19910;42.652;23.332;2023-05-13T00:41:26;2.97;;;2.20;;
23175;SDS011;19910;42.652;23.332;2023-05-13T00:43:53;5.07;;;3.25;;
23175;SDS011;19910;42.652;23.332;2023-05-13T00:46:21;5.53;;;3.30;;
23175;SDS011;19910;42.652;23.332;2023-05-13T00:48:49;4.60;;;3.00;;
23175;SDS011;19910;42.652;23.332;2023-05-13T00:51:16;4.40;;;2.53;;
23175;SDS011;19910;42.652;23.332;2023-05-13T00:53:43;4.60;;;3.20;;
23175;SDS011;19910;42.652;23.332;2023-05-13T00:56:11;3.22;;;2.65;;
23175;SDS011;19910;42.652;23.332;2023-05-13T00:58:39;5.10;;;2.80;;
23175;SDS011;19910;42.652;23.332;2023-05-13T01:01:08;6.15;;;3.17;;
23175;SDS011;19910;42.652;23.332;2023-05-13T01:03:43;4.53;;;3.17;;
23175;SDS011;19910;42.652;23.332;2023-05-13T01:06:29;6.28;;;3.28;;
23175;SDS011;19910;42.652;23.332;2023-05-13T01:09:02;5.45;;;3.45;;
23175;SDS011;19910;42.652;23.332;2023-05-13T01:11:37;4.60;;;3.30;;
23175;SDS011;19910;42.652;23.332;2023-05-13T01:14:07;7.25;;;2.92;;
23175;SDS011;19910;42.652;23.332;2023-05-13T01:16:38;6.15;;;3.53;;
23175;SDS011;19910;42.652;23.332;2023-05-13T01:19:10;9.68;;;3.53;;
23175;SDS011;19910;42.652;23.332;2023-05-13T01:21:52;4.05;;;3.25;;
23175;SDS011;19910;42.652;23.332;2023-05-13T01:24:19;2.30;;;1.67;;
23175;SDS011;19910;42.652;23.332;2023-05-13T01:26:45;1.58;;;1.48;;
23175;SDS011;19910;42.652;23.332;2023-05-13T01:29:13;7.88;;;3.38;;
23175;SDS011;19910;42.652;23.332;2023-05-13T01:31:40;2.80;;;1.80;;
23175;SDS011;19910;42.652;23.332;2023-05-13T01:34:08;3.47;;;2.40;;
23175;SDS011;19910;42.652;23.332;2023-05-13T01:36:36;2.30;;;1.80;;
23175;SDS011;19910;42.652;23.332;2023-05-13T01:39:05;3.55;;;2.30;;
23175;SDS011;19910;42.652;23.332;2023-05-13T01:41:34;3.58;;;2.38;;
23175;SDS011;19910;42.652;23.332;2023-05-13T01:44:01;5.68;;;2.35;;
23175;SDS011;19910;42.652;23.332;2023-05-13T01:46:28;3.75;;;2.63;;
23175;SDS011;19910;42.652;23.332;2023-05-13T01:48:55;2.47;;;1.77;;
23175;SDS011;19910;42.652;23.332;2023-05-13T01:51:22;4.25;;;2.00;;
23175;SDS011;19910;42.652;23.332;2023-05-13T01:53:48;2.47;;;1.83;;
23175;SDS011;19910;42.652;23.332;2023-05-13T01:56:16;2.40;;;1.92;;
23175;SDS011;19910;42.652;23.332;2023-05-13T01:58:43;3.13;;;2.05;;
23175;SDS011;19910;42.652;23.332;2023-05-13T02:01:10;3.40;;;2.42;;
23175;SDS011;19910;42.652;23.332;2023-05-13T02:03:37;4.18;;;2.33;;
23175;SDS011;19910;42.652;23.332;2023-05-13T02:06:04;6.20;;;2.22;;
23175;SDS011;19910;42.652;23.332;2023-05-13T02:08:30;3.50;;;2.03;;
23175;SDS011;19910;42.652;23.332;2023-05-13T02:10:57;5.88;;;2.22;;
23175;SDS011;19910;42.652;23.332;2023-05-13T02:13:26;3.63;;;2.30;;
23175;SDS011;19910;42.652;23.332;2023-05-13T02:15:53;2.53;;;1.90;;
23175;SDS011;19910;42.652;23.332;2023-05-13T02:18:19;4.45;;;2.15;;
23175;SDS011;19910;42.652;23.332;2023-05-13T02:20:46;8.80;;;2.78;;
23175;SDS011;19910;42.652;23.332;2023-05-13T02:23:13;8.30;;;3.90;;
23175;SDS011;19910;42.652;23.332;2023-05-13T02:25:41;4.65;;;3.50;;
23175;SDS011;19910;42.652;23.332;2023-05-13T02:28:07;4.90;;;3.53;;
23175;SDS011;19910;42.652;23.332;2023-05-13T02:30:36;8.18;;;3.97;;
23175;SDS011;19910;42.652;23.332;2023-05-13T02:33:03;7.75;;;4.47;;
23175;SDS011;19910;42.652;23.332;2023-05-13T02:35:29;5.97;;;4.00;;
23175;SDS011;19910;42.652;23.332;2023-05-13T02:37:56;7.43;;;4.60;;
23175;SDS011;19910;42.652;23.332;2023-05-13T02:40:23;5.47;;;3.42;;
23175;SDS011;19910;42.652;23.332;2023-05-13T02:42:49;8.07;;;3.60;;
23175;SDS011;19910;42.652;23.332;2023-05-13T02:45:16;3.28;;;2.22;;
23175;SDS011;19910;42.652;23.332;2023-05-13T02:47:45;5.55;;;2.50;;
23175;SDS011;19910;42.652;23.332;2023-05-13T02:50:11;5.38;;;2.83;;
23175;SDS011;19910;42.652;23.332;2023-05-13T02:52:38;3.60;;;2.67;;
23175;SDS011;19910;42.652;23.332;2023-05-13T02:55:05;4.07;;;2.30;;
23175;SDS011;19910;42.652;23.332;2023-05-13T02:57:33;4.47;;;2.47;;
23175;SDS011;19910;42.652;23.332;2023-05-13T03:00:01;3.83;;;2.40;;
23175;SDS011;19910;42.652;23.332;2023-05-13T03:02:29;8.02;;;3.58;;
23175;SDS011;19910;42.652;23.332;2023-05-13T03:04:57;8.95;;;3.42;;
23175;SDS011;19910;42.652;23.332;2023-05-13T03:07:24;6.20;;;3.92;;
23175;SDS011;19910;42.652;23.332;2023-05-13T03:09:51;7.28;;;4.32;;
23175;SDS011;19910;42.652;23.332;2023-05-13T03:12:18;7.22;;;4.47;;
23175;SDS011;19910;42.652;23.332;2023-05-13T03:14:45;7.03;;;4.25;;
23175;SDS011;19910;42.652;23.332;2023-05-13T03:17:11;6.15;;;4.05;;
23175;SDS011;19910;42.652;23.332;2023-05-13T03:19:38;9.80;;;4.25;;
23175;SDS011;19910;42.652;23.332;2023-05-13T03:22:07;8.07;;;4.05;;
23175;SDS011;19910;42.652;23.332;2023-05-13T03:24:34;10.43;;;4.85;;
23175;SDS011;19910;42.652;23.332;2023-05-13T03:27:01;8.80;;;4.57;;
23175;SDS011;19910;42.652;23.332;2023-05-13T03:29:27;8.38;;;4.35;;
23175;SDS011;19910;42.652;23.332;2023-05-13T03:31:55;6.30;;;3.65;;
23175;SDS011;19910;42.652;23.332;2023-05-13T03:34:21;7.50;;;4.10;;
23175;SDS011;19910;42.652;23.332;2023-05-13T03:36:48;8.43;;;4.72;;
23175;SDS011;19910;42.652;23.332;2023-05-13T03:39:16;8.00;;;4.65;;
23175;SDS011;19910;42.652;23.332;2023-05-13T03:41:43;8.80;;;4.10;;
23175;SDS011;19910;42.652;23.332;2023-05-13T03:44:10;5.90;;;3.95;;
23175;SDS011;19910;42.652;23.332;2023-05-13T03:46:36;8.00;;;3.70;;
23175;SDS011;19910;42.652;23.332;2023-05-13T03:49:03;7.70;;;4.40;;
23175;SDS011;19910;42.652;23.332;2023-05-13T03:51:30;6.88;;;4.28;;
23175;SDS011;19910;42.652;23.332;2023-05-13T03:53:58;7.93;;;4.30;;
23175;SDS011;19910;42.652;23.332;2023-05-13T03:56:26;7.38;;;4.68;;
23175;SDS011;19910;42.652;23.332;2023-05-13T03:58:53;8.13;;;5.45;;
23175;SDS011;19910;42.652;23.332;2023-05-13T04:01:20;8.10;;;5.00;;
23175;SDS011;19910;42.652;23.332;2023-05-13T04:03:47;9.63;;;4.65;;
23175;SDS011;19910;42.652;23.332;2023-05-13T04:06:14;7.05;;;4.22;;
23175;SDS011;19910;42.652;23.332;2023-05-13T04:08:41;7.65;;;6.18;;
23175;SDS011;19910;42.652;23.332;2023-05-13T04:11:08;7.85;;;4.53;;
23175;SDS011;19910;42.652;23.332;2023-05-13T04:13:36;8.43;;;4.47;;
23175;SDS011;19910;42.652;23.332;2023-05-13T04:16:03;10.52;;;6.18;;
23175;SDS011;19910;42.652;23.332;2023-05-13T04:18:30;7.72;;;5.05;;
23175;SDS011;19910;42.652;23.332;2023-05-13T04:20:58;7.85;;;4.65;;
23175;SDS011;19910;42.652;23.332;2023-05-13T04:23:25;7.55;;;4.00;;
23175;SDS011;19910;42.652;23.332;2023-05-13T04:25:52;6.38;;;4.47;;
23175;SDS011;19910;42.652;23.332;2023-05-13T04:28:19;4.90;;;3.15;;
23175;SDS011;19910;42.652;23.332;2023-05-13T04:30:47;6.40;;;3.70;;
23175;SDS011;19910;42.652;23.332;2023-05-13T04:33:14;6.57;;;3.58;;
23175;SDS011;19910;42.652;23.332;2023-05-13T04:35:40;6.25;;;4.05;;
23175;SDS011;19910;42.652;23.332;2023-05-13T04:38:07;5.70;;;3.92;;
23175;SDS011;19910;42.652;23.332;2023-05-13T04:40:34;11.15;;;3.72;;
23175;SDS011;19910;42.652;23.332;2023-05-13T04:43:01;7.68;;;4.55;;
23175;SDS011;19910;42.652;23.332;2023-05-13T04:45:28;4.57;;;3.83;;
23175;SDS011;19910;42.652;23.332;2023-05-13T04:47:57;3.83;;;3.13;;
23175;SDS011;19910;42.652;23.332;2023-05-13T04:50:23;5.78;;;3.35;;
23175;SDS011;19910;42.652;23.332;2023-05-13T04:52:50;5.95;;;3.60;;
23175;SDS011;19910;42.652;23.332;2023-05-13T04:55:18;6.95;;;3.30;;
23175;SDS011;19910;42.652;23.332;2023-05-13T04:57:45;6.78;;;3.83;;
23175;SDS011;19910;42.652;23.332;2023-05-13T05:00:12;10.13;;;3.55;;
23175;SDS011;19910;42.652;23.332;2023-05-13T05:02:40;7.57;;;4.32;;
23175;SDS011;19910;42.652;23.332;2023-05-13T05:05:08;5.55;;;4.03;;
23175;SDS011;19910;42.652;23.332;2023-05-13T05:07:35;5.15;;;3.55;;
23175;SDS011;19910;42.652;23.332;2023-05-13T05:10:05;5.97;;;4.13;;
23175;SDS011;19910;42.652;23.332;2023-05-13T05:12:32;5.15;;;4.32;;
23175;SDS011;19910;42.652;23.332;2023-05-13T05:14:59;6.10;;;4.40;;
23175;SDS011;19910;42.652;23.332;2023-05-13T05:17:26;7.07;;;4.93;;
23175;SDS011;19910;42.652;23.332;2023-05-13T05:19:56;5.78;;;4.15;;
23175;SDS011;19910;42.652;23.332;2023-05-13T05:22:24;7.53;;;4.97;;
23175;SDS011;19910;42.652;23.332;2023-05-13T05:24:51;5.93;;;4.72;;
23175;SDS011;19910;42.652;23.332;2023-05-13T05:27:21;6.10;;;4.40;;
23175;SDS011;19910;42.652;23.332;2023-05-13T05:29:48;5.40;;;4.28;;
23175;SDS011;19910;42.652;23.332;2023-05-13T05:32:14;6.68;;;4.60;;
23175;SDS011;19910;42.652;23.332;2023-05-13T05:34:41;7.43;;;4.35;;
23175;SDS011;19910;42.652;23.332;2023-05-13T05:37:08;5.13;;;3.97;;
23175;SDS011;19910;42.652;23.332;2023-05-13T05:39:36;5.20;;;4.15;;
23175;SDS011;19910;42.652;23.332;2023-05-13T05:42:05;5.18;;;4.05;;
23175;SDS011;19910;42.652;23.332;2023-05-13T05:44:32;6.43;;;4.50;;
23175;SDS011;19910;42.652;23.332;2023-05-13T05:46:59;5.20;;;4.68;;
23175;SDS011;19910;42.652;23.332;2023-05-13T05:49:26;6.82;;;4.75;;
23175;SDS011;19910;42.652;23.332;2023-05-13T05:51:52;8.90;;;5.50;;
23175;SDS011;19910;42.652;23.332;2023-05-13T05:54:19;8.77;;;4.93;;
23175;SDS011;19910;42.652;23.332;2023-05-13T05:56:47;5.80;;;4.68;;
23175;SDS011;19910;42.652;23.332;2023-05-13T05:59:14;6.15;;;4.93;;
23175;SDS011;19910;42.652;23.332;2023-05-13T06:01:41;6.68;;;5.07;;
23175;SDS011;19910;42.652;23.332;2023-05-13T06:04:08;5.90;;;4.97;;
23175;SDS011;19910;42.652;23.332;2023-05-13T06:06:35;5.60;;;4.97;;
23175;SDS011;19910;42.652;23.332;2023-05-13T06:09:03;8.10;;;4.95;;
23175;SDS011;19910;42.652;23.332;2023-05-13T06:11:30;6.68;;;5.18;;
23175;SDS011;19910;42.652;23.332;2023-05-13T06:13:58;6.93;;;4.88;;
23175;SDS011;19910;42.652;23.332;2023-05-13T06:16:25;8.30;;;5.10;;
23175;SDS011;19910;42.652;23.332;2023-05-13T06:18:52;8.90;;;5.00;;
23175;SDS011;19910;42.652;23.332;2023-05-13T06:21:19;6.45;;;5.25;;
23175;SDS011;19910;42.652;23.332;2023-05-13T06:23:46;8.77;;;5.43;;
23175;SDS011;19910;42.652;23.332;2023-05-13T06:26:13;11.32;;;5.63;;
23175;SDS011;19910;42.652;23.332;2023-05-13T06:28:39;6.55;;;5.07;;
23175;SDS011;19910;42.652;23.332;2023-05-13T06:31:07;10.50;;;5.30;;
23175;SDS011;19910;42.652;23.332;2023-05-13T06:33:34;7.63;;;5.35;;
23175;SDS011;19910;42.652;23.332;2023-05-13T06:36:01;10.50;;;5.20;;
23175;SDS011;19910;42.652;23.332;2023-05-13T06:38:28;6.75;;;4.60;;
23175;SDS011;19910;42.652;23.332;2023-05-13T06:40:54;9.50;;;5.40;;
23175;SDS011;19910;42.652;23.332;2023-05-13T06:43:21;7.00;;;4.50;;
23175;SDS011;19910;42.652;23.332;2023-05-13T06:45:48;6.43;;;4.55;;
23175;SDS011;19910;42.652;23.332;2023-05-13T06:48:16;8.73;;;4.40;;
23175;SDS011;19910;42.652;23.332;2023-05-13T06:50:43;6.65;;;4.72;;
23175;SDS011;19910;42.652;23.332;2023-05-13T06:53:10;9.00;;;4.47;;
23175;SDS011;19910;42.652;23.332;2023-05-13T06:55:37;5.47;;;4.43;;
23175;SDS011;19910;42.652;23.332;2023-05-13T06:58:06;7.05;;;5.07;;
23175;SDS011;19910;42.652;23.332;2023-05-13T07:00:35;9.80;;;5.88;;
23175;SDS011;19910;42.652;23.332;2023-05-13T07:03:02;7.85;;;4.47;;
23175;SDS011;19910;42.652;23.332;2023-05-13T07:05:30;9.65;;;5.32;;
23175;SDS011;19910;42.652;23.332;2023-05-13T07:07:57;8.43;;;4.28;;
23175;SDS011;19910;42.652;23.332;2023-05-13T07:10:24;7.53;;;4.70;;
23175;SDS011;19910;42.652;23.332;2023-05-13T07:12:51;10.75;;;4.88;;
23175;SDS011;19910;42.652;23.332;2023-05-13T07:15:17;9.05;;;4.80;;
23175;SDS011;19910;42.652;23.332;2023-05-13T07:17:44;6.53;;;4.25;;
23175;SDS011;19910;42.652;23.332;2023-05-13T07:20:11;6.65;;;4.88;;
23175;SDS011;19910;42.652;23.332;2023-05-13T07:22:39;7.60;;;4.65;;
23175;SDS011;19910;42.652;23.332;2023-05-13T07:25:07;8.57;;;4.85;;
23175;SDS011;19910;42.652;23.332;2023-05-13T07:27:34;7.53;;;4.35;;
23175;SDS011;19910;42.652;23.332;2023-05-13T07:30:01;6.68;;;4.30;;
23175;SDS011;19910;42.652;23.332;2023-05-13T07:32:28;8.48;;;4.53;;
23175;SDS011;19910;42.652;23.332;2023-05-13T07:34:55;6.93;;;3.92;;
23175;SDS011;19910;42.652;23.332;2023-05-13T07:37:22;7.25;;;4.57;;
23175;SDS011;19910;42.652;23.332;2023-05-13T07:39:51;9.18;;;4.10;;
23175;SDS011;19910;42.652;23.332;2023-05-13T07:42:17;5.13;;;3.88;;
23175;SDS011;19910;42.652;23.332;2023-05-13T07:44:44;8.15;;;4.55;;
23175;SDS011;19910;42.652;23.332;2023-05-13T07:47:11;6.40;;;4.50;;
23175;SDS011;19910;42.652;23.332;2023-05-13T07:49:38;8.45;;;4.28;;
23175;SDS011;19910;42.652;23.332;2023-05-13T07:52:05;5.80;;;4.65;;
23175;SDS011;19910;42.652;23.332;2023-05-13T07:54:32;8.07;;;5.32;;
23175;SDS011;19910;42.652;23.332;2023-05-13T07:57:00;8.48;;;5.00;;
23175;SDS011;19910;42.652;23.332;2023-05-13T07:59:28;8.63;;;5.53;;
23175;SDS011;19910;42.652;23.332;2023-05-13T08:01:54;7.10;;;4.60;;
23175;SDS011;19910;42.652;23.332;2023-05-13T08:04:21;7.70;;;5.38;;
23175;SDS011;19910;42.652;23.332;2023-05-13T08:06:48;7.28;;;5.75;;
23175;SDS011;19910;42.652;23.332;2023-05-13T08:09:15;9.95;;;5.95;;
23175;SDS011;19910;42.652;23.332;2023-05-13T08:11:42;7.18;;;5.53;;
23175;SDS011;19910;42.652;23.332;2023-05-13T08:14:10;8.48;;;5.10;;
23175;SDS011;19910;42.652;23.332;2023-05-13T08:16:37;8.48;;;5.75;;
23175;SDS011;19910;42.652;23.332;2023-05-13T08:19:04;7.22;;;5.40;;
23175;SDS011;19910;42.652;23.332;2023-05-13T08:21:30;9.77;;;5.82;;
23175;SDS011;19910;42.652;23.332;2023-05-13T08:23:57;8.57;;;5.97;;
23175;SDS011;19910;42.652;23.332;2023-05-13T08:26:24;9.35;;;5.70;;
23175;SDS011;19910;42.652;23.332;2023-05-13T08:28:53;5.93;;;4.90;;
23175;SDS011;19910;42.652;23.332;2023-05-13T08:31:22;8.13;;;5.85;;
23175;SDS011;19910;42.652;23.332;2023-05-13T08:33:49;9.25;;;6.18;;
23175;SDS011;19910;42.652;23.332;2023-05-13T08:36:17;10.05;;;5.43;;
23175;SDS011;19910;42.652;23.332;2023-05-13T08:38:44;10.10;;;6.32;;
23175;SDS011;19910;42.652;23.332;2023-05-13T08:41:11;7.18;;;5.03;;
23175;SDS011;19910;42.652;23.332;2023-05-13T08:43:39;7.35;;;5.03;;
23175;SDS011;19910;42.652;23.332;2023-05-13T08:46:08;6.75;;;4.63;;
23175;SDS011;19910;42.652;23.332;2023-05-13T08:48:37;8.15;;;4.93;;
23175;SDS011;19910;42.652;23.332;2023-05-13T08:51:06;8.00;;;4.90;;
23175;SDS011;19910;42.652;23.332;2023-05-13T08:53:33;7.55;;;5.05;;
23175;SDS011;19910;42.652;23.332;2023-05-13T08:56:01;10.38;;;5.13;;
23175;SDS011;19910;42.652;23.332;2023-05-13T08:58:29;9.35;;;5.55;;
23175;SDS011;19910;42.652;23.332;2023-05-13T09:00:56;14.35;;;6.93;;
23175;SDS011;19910;42.652;23.332;2023-05-13T09:03:23;10.27;;;5.30;;
23175;SDS011;19910;42.652;23.332;2023-05-13T09:05:54;9.18;;;5.70;;
23175;SDS011;19910;42.652;23.332;2023-05-13T09:08:22;10.40;;;6.10;;
23175;SDS011;19910;42.652;23.332;2023-05-13T09:10:48;14.48;;;7.28;;
23175;SDS011;19910;42.652;23.332;2023-05-13T09:13:17;10.55;;;6.03;;
23175;SDS011;19910;42.652;23.332;2023-05-13T09:15:44;8.25;;;5.80;;
23175;SDS011;19910;42.652;23.332;2023-05-13T09:18:14;9.05;;;6.00;;
23175;SDS011;19910;42.652;23.332;2023-05-13T09:20:41;13.00;;;6.07;;
23175;SDS011;19910;42.652;23.332;2023-05-13T09:23:09;11.40;;;6.45;;
23175;SDS011;19910;42.652;23.332;2023-05-13T09:25:36;11.05;;;5.65;;
23175;SDS011;19910;42.652;23.332;2023-05-13T09:28:04;10.43;;;6.45;;
23175;SDS011;19910;42.652;23.332;2023-05-13T09:30:33;10.57;;;5.95;;
23175;SDS011;19910;42.652;23.332;2023-05-13T09:33:04;7.40;;;5.82;;
23175;SDS011;19910;42.652;23.332;2023-05-13T09:35:34;9.95;;;6.18;;
23175;SDS011;19910;42.652;23.332;2023-05-13T09:38:12;8.02;;;5.65;;
23175;SDS011;19910;42.652;23.332;2023-05-13T09:40:49;10.07;;;5.50;;
23175;SDS011;19910;42.652;23.332;2023-05-13T09:43:17;8.07;;;5.18;;
23175;SDS011;19910;42.652;23.332;2023-05-13T09:45:44;8.32;;;5.78;;
23175;SDS011;19910;42.652;23.332;2023-05-13T09:48:13;9.98;;;5.90;;
23175;SDS011;19910;42.652;23.332;2023-05-13T09:50:46;9.43;;;5.93;;
23175;SDS011;19910;42.652;23.332;2023-05-13T09:53:17;9.35;;;5.63;;
23175;SDS011;19910;42.652;23.332;2023-05-13T09:55:45;8.00;;;5.63;;
23175;SDS011;19910;42.652;23.332;2023-05-13T09:58:12;9.00;;;5.65;;
23175;SDS011;19910;42.652;23.332;2023-05-13T10:00:39;14.18;;;6.95;;
23175;SDS011;19910;42.652;23.332;2023-05-13T10:03:06;8.10;;;5.85;;
23175;SDS011;19910;42.652;23.332;2023-05-13T10:05:33;7.53;;;5.30;;
23175;SDS011;19910;42.652;23.332;2023-05-13T10:08:00;10.15;;;5.47;;
23175;SDS011;19910;42.652;23.332;2023-05-13T10:10:30;8.55;;;5.78;;
23175;SDS011;19910;42.652;23.332;2023-05-13T10:12:58;11.43;;;5.90;;
23175;SDS011;19910;42.652;23.332;2023-05-13T10:15:29;7.45;;;5.13;;
23175;SDS011;19910;42.652;23.332;2023-05-13T10:17:56;8.25;;;5.72;;
23175;SDS011;19910;42.652;23.332;2023-05-13T10:20:24;6.88;;;4.75;;
23175;SDS011;19910;42.652;23.332;2023-05-13T10:22:52;7.50;;;5.70;;
23175;SDS011;19910;42.652;23.332;2023-05-13T10:25:19;7.40;;;4.63;;
23175;SDS011;19910;42.652;23.332;2023-05-13T10:27:48;6.97;;;4.72;;
23175;SDS011;19910;42.652;23.332;2023-05-13T10:30:16;7.20;;;5.22;;
23175;SDS011;19910;42.652;23.332;2023-05-13T10:32:44;9.18;;;5.22;;
23175;SDS011;19910;42.652;23.332;2023-05-13T10:35:11;7.40;;;5.22;;
23175;SDS011;19910;42.652;23.332;2023-05-13T10:37:53;6.57;;;5.35;;
23175;SDS011;19910;42.652;23.332;2023-05-13T10:40:30;7.88;;;5.28;;
23175;SDS011;19910;42.652;23.332;2023-05-13T10:43:12;8.13;;;5.10;;
23175;SDS011;19910;42.652;23.332;2023-05-13T10:45:45;11.25;;;5.85;;
23175;SDS011;19910;42.652;23.332;2023-05-13T10:48:13;9.05;;;5.53;;
23175;SDS011;19910;42.652;23.332;2023-05-13T10:50:49;6.88;;;5.30;;
23175;SDS011;19910;42.652;23.332;2023-05-13T10:53:19;8.45;;;5.38;;
23175;SDS011;19910;42.652;23.332;2023-05-13T10:55:51;7.57;;;5.90;;
23175;SDS011;19910;42.652;23.332;2023-05-13T10:58:21;6.88;;;5.82;;
23175;SDS011;19910;42.652;23.332;2023-05-13T11:00:53;7.53;;;5.80;;
23175;SDS011;19910;42.652;23.332;2023-05-13T11:03:38;7.45;;;5.30;;
23175;SDS011;19910;42.652;23.332;2023-05-13T11:06:15;9.65;;;5.60;;
23175;SDS011;19910;42.652;23.332;2023-05-13T11:08:44;9.57;;;5.78;;
23175;SDS011;19910;42.652;23.332;2023-05-13T11:14:17;7.35;;;5.75;;
23175;SDS011;19910;42.652;23.332;2023-05-13T11:16:45;6.07;;;5.47;;
23175;SDS011;19910;42.652;23.332;2023-05-13T11:19:20;9.85;;;5.90;;
23175;SDS011;19910;42.652;23.332;2023-05-13T11:21:52;9.18;;;5.53;;
23175;SDS011;19910;42.652;23.332;2023-05-13T11:24:19;9.00;;;6.40;;
23175;SDS011;19910;42.652;23.332;2023-05-13T11:26:47;7.47;;;5.85;;
23175;SDS011;19910;42.652;23.332;2023-05-13T11:29:27;7.32;;;5.60;;
23175;SDS011;19910;42.652;23.332;2023-05-13T11:31:55;8.82;;;5.93;;
23175;SDS011;19910;42.652;23.332;2023-05-13T11:34:23;8.98;;;5.68;;
23175;SDS011;19910;42.652;23.332;2023-05-13T11:36:56;8.25;;;5.43;;
23175;SDS011;19910;42.652;23.332;2023-05-13T11:39:31;9.13;;;6.55;;
23175;SDS011;19910;42.652;23.332;2023-05-13T11:41:58;7.32;;;5.78;;
23175;SDS011;19910;42.652;23.332;2023-05-13T11:44:28;7.75;;;4.88;;
23175;SDS011;19910;42.652;23.332;2023-05-13T11:46:56;8.38;;;4.93;;
23175;SDS011;19910;42.652;23.332;2023-05-13T11:49:34;5.70;;;5.13;;
23175;SDS011;19910;42.652;23.332;2023-05-13T11:52:03;9.57;;;5.32;;
23175;SDS011;19910;42.652;23.332;2023-05-13T11:54:31;5.85;;;5.10;;
23175;SDS011;19910;42.652;23.332;2023-05-13T11:57:12;8.05;;;4.88;;
23175;SDS011;19910;42.652;23.332;2023-05-13T11:59:47;6.28;;;5.20;;
23175;SDS011;19910;42.652;23.332;2023-05-13T12:02:15;9.30;;;5.28;;
23175;SDS011;19910;42.652;23.332;2023-05-13T12:04:42;5.82;;;4.82;;
23175;SDS011;19910;42.652;23.332;2023-05-13T12:07:10;7.68;;;4.85;;
23175;SDS011;19910;42.652;23.332;2023-05-13T12:09:36;8.25;;;4.93;;
23175;SDS011;19910;42.652;23.332;2023-05-13T12:12:03;4.93;;;4.43;;
23175;SDS011;19910;42.652;23.332;2023-05-13T12:14:31;6.50;;;4.82;;
23175;SDS011;19910;42.652;23.332;2023-05-13T12:16:59;6.70;;;4.60;;
23175;SDS011;19910;42.652;23.332;2023-05-13T12:19:26;7.20;;;5.32;;
23175;SDS011;19910;42.652;23.332;2023-05-13T12:21:53;9.02;;;4.88;;
23175;SDS011;19910;42.652;23.332;2023-05-13T12:24:20;6.63;;;5.10;;
23175;SDS011;19910;42.652;23.332;2023-05-13T12:26:47;6.20;;;4.97;;
23175;SDS011;19910;42.652;23.332;2023-05-13T12:29:14;7.00;;;4.28;;
23175;SDS011;19910;42.652;23.332;2023-05-13T12:31:41;8.35;;;5.07;;
23175;SDS011;19910;42.652;23.332;2023-05-13T12:34:10;7.63;;;5.00;;
23175;SDS011;19910;42.652;23.332;2023-05-13T12:36:37;8.93;;;4.97;;
23175;SDS011;19910;42.652;23.332;2023-05-13T12:39:05;7.50;;;4.90;;
23175;SDS011;19910;42.652;23.332;2023-05-13T12:41:33;5.15;;;4.43;;
23175;SDS011;19910;42.652;23.332;2023-05-13T12:44:01;6.43;;;4.55;;
23175;SDS011;19910;42.652;23.332;2023-05-13T12:46:29;6.97;;;4.38;;
23175;SDS011;19910;42.652;23.332;2023-05-13T12:48:57;5.72;;;4.10;;
23175;SDS011;19910;42.652;23.332;2023-05-13T12:51:26;5.25;;;4.28;;
23175;SDS011;19910;42.652;23.332;2023-05-13T12:53:53;6.63;;;4.47;;
23175;SDS011;19910;42.652;23.332;2023-05-13T12:56:21;5.63;;;4.28;;
23175;SDS011;19910;42.652;23.332;2023-05-13T12:58:49;7.47;;;4.38;;
23175;SDS011;19910;42.652;23.332;2023-05-13T13:01:16;6.80;;;4.68;;
23175;SDS011;19910;42.652;23.332;2023-05-13T13:03:43;6.07;;;4.90;;
23175;SDS011;19910;42.652;23.332;2023-05-13T13:06:11;8.25;;;4.70;;
23175;SDS011;19910;42.652;23.332;2023-05-13T13:08:40;9.60;;;5.03;;
23175;SDS011;19910;42.652;23.332;2023-05-13T13:11:06;8.02;;;4.40;;
23175;SDS011;19910;42.652;23.332;2023-05-13T13:13:33;6.18;;;4.28;;
23175;SDS011;19910;42.652;23.332;2023-05-13T13:16:00;8.20;;;4.70;;
23175;SDS011;19910;42.652;23.332;2023-05-13T13:18:27;6.85;;;4.47;;
23175;SDS011;19910;42.652;23.332;2023-05-13T13:20:54;7.10;;;4.07;;
23175;SDS011;19910;42.652;23.332;2023-05-13T13:23:20;7.38;;;4.30;;
23175;SDS011;19910;42.652;23.332;2023-05-13T13:25:48;8.50;;;4.55;;
23175;SDS011;19910;42.652;23.332;2023-05-13T13:28:15;5.78;;;4.35;;
23175;SDS011;19910;42.652;23.332;2023-05-13T13:30:42;4.60;;;3.72;;
23175;SDS011;19910;42.652;23.332;2023-05-13T13:33:11;5.47;;;4.10;;
23175;SDS011;19910;42.652;23.332;2023-05-13T13:35:39;5.93;;;4.03;;
23175;SDS011;19910;42.652;23.332;2023-05-13T13:38:06;9.30;;;4.00;;
23175;SDS011;19910;42.652;23.332;2023-05-13T13:40:33;5.07;;;4.35;;
23175;SDS011;19910;42.652;23.332;2023-05-13T13:43:02;6.70;;;4.10;;
23175;SDS011;19910;42.652;23.332;2023-05-13T13:45:29;34.00;;;21.73;;
23175;SDS011;19910;42.652;23.332;2023-05-13T13:47:55;12.98;;;8.38;;
23175;SDS011;19910;42.652;23.332;2023-05-13T13:50:22;5.25;;;4.22;;
23175;SDS011;19910;42.652;23.332;2023-05-13T13:52:49;14.93;;;6.88;;
23175;SDS011;19910;42.652;23.332;2023-05-13T13:55:17;7.70;;;4.82;;
23175;SDS011;19910;42.652;23.332;2023-05-13T13:57:44;6.10;;;4.00;;
23175;SDS011;19910;42.652;23.332;2023-05-13T14:00:13;4.03;;;3.58;;
23175;SDS011;19910;42.652;23.332;2023-05-13T14:02:41;4.47;;;3.90;;
23175;SDS011;19910;42.652;23.332;2023-05-13T14:05:08;7.95;;;3.67;;
23175;SDS011;19910;42.652;23.332;2023-05-13T14:07:35;5.60;;;3.55;;
23175;SDS011;19910;42.652;23.332;2023-05-13T14:10:02;8.90;;;3.72;;
23175;SDS011;19910;42.652;23.332;2023-05-13T14:12:29;7.63;;;3.75;;
23175;SDS011;19910;42.652;23.332;2023-05-13T14:14:57;5.55;;;4.15;;
23175;SDS011;19910;42.652;23.332;2023-05-13T14:17:25;14.32;;;4.50;;
23175;SDS011;19910;42.652;23.332;2023-05-13T14:19:52;6.18;;;4.22;;
23175;SDS011;19910;42.652;23.332;2023-05-13T14:22:19;6.50;;;3.67;;
23175;SDS011;19910;42.652;23.332;2023-05-13T14:24:47;11.10;;;6.00;;
23175;SDS011;19910;42.652;23.332;2023-05-13T14:27:14;11.27;;;5.82;;
23175;SDS011;19910;42.652;23.332;2023-05-13T14:29:41;9.75;;;5.18;;
23175;SDS011;19910;42.652;23.332;2023-05-13T14:32:07;9.50;;;4.30;;
23175;SDS011;19910;42.652;23.332;2023-05-13T14:34:35;7.25;;;3.83;;
23175;SDS011;19910;42.652;23.332;2023-05-13T14:37:02;10.13;;;5.60;;
23175;SDS011;19910;42.652;23.332;2023-05-13T14:39:29;7.22;;;3.65;;
23175;SDS011;19910;42.652;23.332;2023-05-13T14:41:56;4.53;;;3.40;;